sensor_id;sensor_type;location;lat;lon;timestamp;pressure;altitude;pressure_sealevel;temperature;humidity
50710;BME280;37033;49.994;21.992;2022-08-03T00:03:04;99522.97;;;17.20;79.32
50710;BME280;37033;49.994;21.992;2022-08-03T00:05:54;99522.64;;;17.18;79.41
50710;BME280;37033;49.994;21.992;2022-08-03T00:08:44;99522.98;;;17.16;79.58
50710;BME280;37033;49.994;21.992;2022-08-03T00:11:35;99520.13;;;17.13;79.40
50710;BME280;37033;49.994;21.992;2022-08-03T00:14:24;99522.23;;;17.09;79.46
50710;BME280;37033;49.994;21.992;2022-08-03T00:17:14;99527.80;;;17.05;79.51
50710;BME280;37033;49.994;21.992;2022-08-03T00:20:05;99528.64;;;17.03;79.61
50710;BME280;37033;49.994;21.992;2022-08-03T00:22:55;99530.02;;;17.00;79.86
50710;BME280;37033;49.994;21.992;2022-08-03T00:25:45;99532.89;;;16.96;79.75
50710;BME280;37033;49.994;21.992;2022-08-03T00:28:36;99530.70;;;16.93;79.81
50710;BME280;37033;49.994;21.992;2022-08-03T00:31:26;99534.94;;;16.92;79.94
50710;BME280;37033;49.994;21.992;2022-08-03T00:34:16;99528.96;;;16.90;80.03
50710;BME280;37033;49.994;21.992;2022-08-03T00:37:06;99530.13;;;16.85;80.02
50710;BME280;37033;49.994;21.992;2022-08-03T00:39:56;99534.70;;;16.82;80.17
50710;BME280;37033;49.994;21.992;2022-08-03T00:42:53;99537.96;;;16.79;80.28
50710;BME280;37033;49.994;21.992;2022-08-03T00:45:43;99536.27;;;16.76;80.46
50710;BME280;37033;49.994;21.992;2022-08-03T00:48:33;99534.58;;;16.74;80.37
50710;BME280;37033;49.994;21.992;2022-08-03T00:51:24;99535.52;;;16.72;80.49
50710;BME280;37033;49.994;21.992;2022-08-03T00:54:14;99532.89;;;16.71;80.67
50710;BME280;37033;49.994;21.992;2022-08-03T00:57:04;99534.10;;;16.69;80.72
50710;BME280;37033;49.994;21.992;2022-08-03T00:59:54;99531.52;;;16.66;80.93
50710;BME280;37033;49.994;21.992;2022-08-03T01:02:45;99528.90;;;16.63;81.12
50710;BME280;37033;49.994;21.992;2022-08-03T01:05:39;99528.90;;;16.59;81.13
50710;BME280;37033;49.994;21.992;2022-08-03T01:08:38;99529.79;;;16.59;81.37
50710;BME280;37033;49.994;21.992;2022-08-03T01:11:34;99528.80;;;16.59;81.40
50710;BME280;37033;49.994;21.992;2022-08-03T01:14:33;99527.98;;;16.60;81.71
50710;BME280;37033;49.994;21.992;2022-08-03T01:17:30;99531.92;;;16.60;81.80
50710;BME280;37033;49.994;21.992;2022-08-03T01:20:25;99536.70;;;16.61;81.88
50710;BME280;37033;49.994;21.992;2022-08-03T01:23:36;99540.59;;;16.62;81.93
50710;BME280;37033;49.994;21.992;2022-08-03T01:27:02;99545.37;;;16.61;81.83
50710;BME280;37033;49.994;21.992;2022-08-03T01:29:58;99549.32;;;16.60;81.97
50710;BME280;37033;49.994;21.992;2022-08-03T01:32:53;99547.08;;;16.59;81.95
50710;BME280;37033;49.994;21.992;2022-08-03T01:35:47;99547.73;;;16.58;82.31
50710;BME280;37033;49.994;21.992;2022-08-03T01:38:42;99549.44;;;16.57;82.18
50710;BME280;37033;49.994;21.992;2022-08-03T01:41:36;99555.33;;;16.58;82.45
50710;BME280;37033;49.994;21.992;2022-08-03T01:44:32;99548.01;;;16.56;82.32
50710;BME280;37033;49.994;21.992;2022-08-03T01:47:24;99547.80;;;16.53;82.57
50710;BME280;37033;49.994;21.992;2022-08-03T01:50:17;99546.05;;;16.50;82.70
50710;BME280;37033;49.994;21.992;2022-08-03T01:53:09;99542.53;;;16.48;82.73
50710;BME280;37033;49.994;21.992;2022-08-03T01:56:03;99542.92;;;16.47;82.85
50710;BME280;37033;49.994;21.992;2022-08-03T01:58:55;99539.57;;;16.46;83.04
50710;BME280;37033;49.994;21.992;2022-08-03T02:01:48;99540.02;;;16.46;83.09
50710;BME280;37033;49.994;21.992;2022-08-03T02:04:40;99538.75;;;16.47;83.13
50710;BME280;37033;49.994;21.992;2022-08-03T02:07:31;99538.31;;;16.49;83.09
50710;BME280;37033;49.994;21.992;2022-08-03T02:10:23;99539.02;;;16.52;83.21
50710;BME280;37033;49.994;21.992;2022-08-03T02:13:15;99540.00;;;16.54;83.31
50710;BME280;37033;49.994;21.992;2022-08-03T02:16:07;99538.89;;;16.55;83.27
50710;BME280;37033;49.994;21.992;2022-08-03T02:18:58;99541.38;;;16.54;83.13
50710;BME280;37033;49.994;21.992;2022-08-03T02:21:51;99542.80;;;16.53;83.22
50710;BME280;37033;49.994;21.992;2022-08-03T02:24:42;99543.73;;;16.54;83.39
50710;BME280;37033;49.994;21.992;2022-08-03T02:27:34;99544.83;;;16.55;83.40
50710;BME280;37033;49.994;21.992;2022-08-03T02:30:35;99544.99;;;16.56;83.48
50710;BME280;37033;49.994;21.992;2022-08-03T02:33:29;99543.99;;;16.56;83.51
50710;BME280;37033;49.994;21.992;2022-08-03T02:36:21;99543.98;;;16.56;83.51
50710;BME280;37033;49.994;21.992;2022-08-03T02:39:14;99545.05;;;16.55;83.67
50710;BME280;37033;49.994;21.992;2022-08-03T02:42:06;99540.92;;;16.53;83.52
50710;BME280;37033;49.994;21.992;2022-08-03T02:44:59;99540.73;;;16.51;83.75
50710;BME280;37033;49.994;21.992;2022-08-03T02:47:54;99542.27;;;16.50;83.68
50710;BME280;37033;49.994;21.992;2022-08-03T02:50:45;99546.20;;;16.49;83.69
50710;BME280;37033;49.994;21.992;2022-08-03T02:53:36;99540.73;;;16.47;83.89
50710;BME280;37033;49.994;21.992;2022-08-03T02:56:27;99547.09;;;16.45;83.87
50710;BME280;37033;49.994;21.992;2022-08-03T02:59:19;99548.59;;;16.45;83.83
50710;BME280;37033;49.994;21.992;2022-08-03T03:02:10;99544.35;;;16.45;83.98
50710;BME280;37033;49.994;21.992;2022-08-03T03:05:01;99548.91;;;16.44;83.92
50710;BME280;37033;49.994;21.992;2022-08-03T03:07:51;99550.05;;;16.44;84.09
50710;BME280;37033;49.994;21.992;2022-08-03T03:10:42;99557.04;;;16.45;84.18
50710;BME280;37033;49.994;21.992;2022-08-03T03:13:32;99556.20;;;16.46;84.19
50710;BME280;37033;49.994;21.992;2022-08-03T03:16:22;99559.83;;;16.48;84.27
50710;BME280;37033;49.994;21.992;2022-08-03T03:19:16;99558.13;;;16.50;84.22
50710;BME280;37033;49.994;21.992;2022-08-03T03:22:07;99559.38;;;16.49;84.25
50710;BME280;37033;49.994;21.992;2022-08-03T03:24:58;99561.25;;;16.48;84.20
50710;BME280;37033;49.994;21.992;2022-08-03T03:27:49;99559.45;;;16.48;84.18
50710;BME280;37033;49.994;21.992;2022-08-03T03:30:39;99560.05;;;16.50;84.43
50710;BME280;37033;49.994;21.992;2022-08-03T03:33:29;99560.20;;;16.51;84.32
50710;BME280;37033;49.994;21.992;2022-08-03T03:36:19;99558.78;;;16.50;84.45
50710;BME280;37033;49.994;21.992;2022-08-03T03:39:09;99559.72;;;16.49;84.31
50710;BME280;37033;49.994;21.992;2022-08-03T03:42:00;99563.66;;;16.49;84.50
50710;BME280;37033;49.994;21.992;2022-08-03T03:44:51;99566.07;;;16.51;84.57
50710;BME280;37033;49.994;21.992;2022-08-03T03:47:41;99565.91;;;16.51;84.75
50710;BME280;37033;49.994;21.992;2022-08-03T03:50:32;99568.77;;;16.52;84.70
50710;BME280;37033;49.994;21.992;2022-08-03T03:53:23;99566.89;;;16.53;84.81
50710;BME280;37033;49.994;21.992;2022-08-03T03:56:14;99566.89;;;16.56;84.78
50710;BME280;37033;49.994;21.992;2022-08-03T03:59:04;99567.48;;;16.58;84.90
50710;BME280;37033;49.994;21.992;2022-08-03T04:01:54;99571.39;;;16.60;84.92
50710;BME280;37033;49.994;21.992;2022-08-03T04:04:44;99577.42;;;16.62;84.97
50710;BME280;37033;49.994;21.992;2022-08-03T04:07:56;99579.50;;;16.63;84.89
50710;BME280;37033;49.994;21.992;2022-08-03T04:11:08;99581.70;;;16.68;84.81
50710;BME280;37033;49.994;21.992;2022-08-03T04:14:04;99585.64;;;16.71;85.00
50710;BME280;37033;49.994;21.992;2022-08-03T04:16:57;99586.34;;;16.75;84.98
50710;BME280;37033;49.994;21.992;2022-08-03T04:19:49;99592.45;;;16.80;85.17
50710;BME280;37033;49.994;21.992;2022-08-03T04:22:41;99594.33;;;16.84;85.05
50710;BME280;37033;49.994;21.992;2022-08-03T04:25:33;99600.30;;;16.88;85.13
50710;BME280;37033;49.994;21.992;2022-08-03T04:28:24;99600.12;;;16.93;85.21
50710;BME280;37033;49.994;21.992;2022-08-03T04:31:15;99601.66;;;16.95;85.09
50710;BME280;37033;49.994;21.992;2022-08-03T04:34:06;99600.88;;;16.99;85.16
50710;BME280;37033;49.994;21.992;2022-08-03T04:36:59;99601.41;;;17.02;85.17
50710;BME280;37033;49.994;21.992;2022-08-03T04:39:49;99598.94;;;17.05;85.19
50710;BME280;37033;49.994;21.992;2022-08-03T04:42:41;99600.14;;;17.08;85.16
50710;BME280;37033;49.994;21.992;2022-08-03T04:45:31;99599.02;;;17.10;85.27
50710;BME280;37033;49.994;21.992;2022-08-03T04:48:22;99604.46;;;17.14;85.32
50710;BME280;37033;49.994;21.992;2022-08-03T04:51:12;99606.80;;;17.21;85.52
50710;BME280;37033;49.994;21.992;2022-08-03T04:54:03;99608.65;;;17.28;85.44
50710;BME280;37033;49.994;21.992;2022-08-03T04:56:54;99610.11;;;17.35;85.49
50710;BME280;37033;49.994;21.992;2022-08-03T04:59:44;99610.95;;;17.41;85.29
50710;BME280;37033;49.994;21.992;2022-08-03T05:02:36;99608.78;;;17.46;85.26
50710;BME280;37033;49.994;21.992;2022-08-03T05:05:27;99613.66;;;17.49;85.19
50710;BME280;37033;49.994;21.992;2022-08-03T05:08:16;99616.46;;;17.51;85.11
50710;BME280;37033;49.994;21.992;2022-08-03T05:11:06;99619.60;;;17.51;84.90
50710;BME280;37033;49.994;21.992;2022-08-03T05:13:56;99620.80;;;17.52;84.98
50710;BME280;37033;49.994;21.992;2022-08-03T05:16:46;99614.35;;;17.57;85.00
50710;BME280;37033;49.994;21.992;2022-08-03T05:19:36;99612.73;;;17.61;85.07
50710;BME280;37033;49.994;21.992;2022-08-03T05:22:26;99612.43;;;17.64;84.95
50710;BME280;37033;49.994;21.992;2022-08-03T05:25:16;99612.58;;;17.68;85.02
50710;BME280;37033;49.994;21.992;2022-08-03T05:28:06;99615.37;;;17.72;84.83
50710;BME280;37033;49.994;21.992;2022-08-03T05:30:56;99618.25;;;17.77;85.18
50710;BME280;37033;49.994;21.992;2022-08-03T05:33:46;99623.09;;;17.79;85.12
50710;BME280;37033;49.994;21.992;2022-08-03T05:36:36;99620.05;;;17.82;85.03
50710;BME280;37033;49.994;21.992;2022-08-03T05:39:26;99619.00;;;17.86;85.07
50710;BME280;37033;49.994;21.992;2022-08-03T05:42:17;99620.02;;;17.92;85.05
50710;BME280;37033;49.994;21.992;2022-08-03T05:45:08;99624.77;;;17.98;85.16
50710;BME280;37033;49.994;21.992;2022-08-03T05:48:05;99627.83;;;18.01;84.92
50710;BME280;37033;49.994;21.992;2022-08-03T05:50:55;99630.59;;;18.07;85.03
50710;BME280;37033;49.994;21.992;2022-08-03T05:53:45;99632.59;;;18.13;85.10
50710;BME280;37033;49.994;21.992;2022-08-03T05:56:35;99638.69;;;18.16;84.86
50710;BME280;37033;49.994;21.992;2022-08-03T05:59:25;99640.52;;;18.21;84.73
50710;BME280;37033;49.994;21.992;2022-08-03T06:02:15;99644.23;;;18.23;84.58
50710;BME280;37033;49.994;21.992;2022-08-03T06:05:06;99645.09;;;18.28;84.70
50710;BME280;37033;49.994;21.992;2022-08-03T06:07:56;99643.95;;;18.32;84.56
50710;BME280;37033;49.994;21.992;2022-08-03T06:10:46;99642.40;;;18.41;84.55
50710;BME280;37033;49.994;21.992;2022-08-03T06:13:36;99642.23;;;18.49;84.50
50710;BME280;37033;49.994;21.992;2022-08-03T06:16:26;99646.45;;;18.57;84.29
50710;BME280;37033;49.994;21.992;2022-08-03T06:19:16;99648.59;;;18.60;84.15
50710;BME280;37033;49.994;21.992;2022-08-03T06:22:06;99648.55;;;18.63;84.04
50710;BME280;37033;49.994;21.992;2022-08-03T06:24:56;99647.65;;;18.65;83.93
50710;BME280;37033;49.994;21.992;2022-08-03T06:27:46;99645.44;;;18.67;83.92
50710;BME280;37033;49.994;21.992;2022-08-03T06:30:36;99645.63;;;18.70;83.75
50710;BME280;37033;49.994;21.992;2022-08-03T06:33:26;99648.52;;;18.73;83.78
50710;BME280;37033;49.994;21.992;2022-08-03T06:36:16;99649.36;;;18.79;83.77
50710;BME280;37033;49.994;21.992;2022-08-03T06:39:06;99650.47;;;18.85;83.88
50710;BME280;37033;49.994;21.992;2022-08-03T06:41:56;99650.63;;;18.92;83.66
50710;BME280;37033;49.994;21.992;2022-08-03T06:44:46;99650.08;;;18.98;83.60
50710;BME280;37033;49.994;21.992;2022-08-03T06:47:36;99650.16;;;19.05;83.46
50710;BME280;37033;49.994;21.992;2022-08-03T06:50:26;99650.32;;;19.12;83.43
50710;BME280;37033;49.994;21.992;2022-08-03T06:53:16;99648.63;;;19.19;83.23
50710;BME280;37033;49.994;21.992;2022-08-03T06:56:08;99653.39;;;19.25;83.02
50710;BME280;37033;49.994;21.992;2022-08-03T06:58:58;99656.57;;;19.30;82.90
50710;BME280;37033;49.994;21.992;2022-08-03T07:01:48;99656.37;;;19.33;82.60
50710;BME280;37033;49.994;21.992;2022-08-03T07:04:38;99658.66;;;19.41;82.73
50710;BME280;37033;49.994;21.992;2022-08-03T07:07:28;99659.98;;;19.50;82.58
50710;BME280;37033;49.994;21.992;2022-08-03T07:10:18;99661.18;;;19.61;82.56
50710;BME280;37033;49.994;21.992;2022-08-03T07:13:08;99665.47;;;19.69;82.42
50710;BME280;37033;49.994;21.992;2022-08-03T07:15:58;99664.77;;;19.78;82.18
50710;BME280;37033;49.994;21.992;2022-08-03T07:18:48;99664.36;;;19.89;82.18
50710;BME280;37033;49.994;21.992;2022-08-03T07:21:38;99664.15;;;20.01;82.03
50710;BME280;37033;49.994;21.992;2022-08-03T07:24:28;99663.09;;;20.14;82.02
50710;BME280;37033;49.994;21.992;2022-08-03T07:27:19;99663.73;;;20.29;81.71
50710;BME280;37033;49.994;21.992;2022-08-03T07:30:10;99660.58;;;20.49;81.89
50710;BME280;37033;49.994;21.992;2022-08-03T07:33:00;99663.50;;;20.67;81.00
50710;BME280;37033;49.994;21.992;2022-08-03T07:35:50;99664.16;;;20.80;80.80
50710;BME280;37033;49.994;21.992;2022-08-03T07:38:40;99660.74;;;21.01;81.10
50710;BME280;37033;49.994;21.992;2022-08-03T07:41:30;99657.52;;;21.26;80.97
50710;BME280;37033;49.994;21.992;2022-08-03T07:44:20;99660.21;;;21.51;80.46
50710;BME280;37033;49.994;21.992;2022-08-03T07:47:10;99661.45;;;21.82;80.79
50710;BME280;37033;49.994;21.992;2022-08-03T07:50:00;99665.38;;;22.17;80.25
50710;BME280;37033;49.994;21.992;2022-08-03T07:52:50;99665.11;;;22.49;79.43
50710;BME280;37033;49.994;21.992;2022-08-03T07:55:40;99670.52;;;22.86;78.92
50710;BME280;37033;49.994;21.992;2022-08-03T07:58:31;99672.02;;;22.99;76.88
50710;BME280;37033;49.994;21.992;2022-08-03T08:01:20;99672.59;;;22.95;75.71
50710;BME280;37033;49.994;21.992;2022-08-03T08:04:10;99667.22;;;23.01;76.23
50710;BME280;37033;49.994;21.992;2022-08-03T08:07:00;99668.22;;;23.17;75.76
50710;BME280;37033;49.994;21.992;2022-08-03T08:09:50;99664.77;;;23.20;74.39
50710;BME280;37033;49.994;21.992;2022-08-03T08:12:41;99663.02;;;23.08;74.00
50710;BME280;37033;49.994;21.992;2022-08-03T08:15:31;99663.67;;;23.11;74.46
50710;BME280;37033;49.994;21.992;2022-08-03T08:18:21;99666.52;;;23.28;74.75
50710;BME280;37033;49.994;21.992;2022-08-03T08:21:11;99668.15;;;23.42;74.33
50710;BME280;37033;49.994;21.992;2022-08-03T08:24:01;99670.88;;;23.57;73.80
50710;BME280;37033;49.994;21.992;2022-08-03T08:26:51;99673.67;;;23.74;73.84
50710;BME280;37033;49.994;21.992;2022-08-03T08:29:41;99675.42;;;23.87;72.65
50710;BME280;37033;49.994;21.992;2022-08-03T08:32:31;99675.27;;;23.97;72.20
50710;BME280;37033;49.994;21.992;2022-08-03T08:35:21;99674.54;;;24.07;72.21
50710;BME280;37033;49.994;21.992;2022-08-03T08:38:13;99676.33;;;24.22;71.76
50710;BME280;37033;49.994;21.992;2022-08-03T08:41:03;99676.34;;;24.35;71.76
50710;BME280;37033;49.994;21.992;2022-08-03T08:43:54;99678.02;;;24.56;71.21
50710;BME280;37033;49.994;21.992;2022-08-03T08:46:44;99675.36;;;24.76;70.91
50710;BME280;37033;49.994;21.992;2022-08-03T08:49:36;99677.73;;;25.14;71.39
50710;BME280;37033;49.994;21.992;2022-08-03T08:52:29;99672.05;;;25.61;70.41
50710;BME280;37033;49.994;21.992;2022-08-03T08:55:22;99672.73;;;25.88;68.86
50710;BME280;37033;49.994;21.992;2022-08-03T08:58:12;99667.35;;;26.21;69.31
50710;BME280;37033;49.994;21.992;2022-08-03T09:01:05;99666.39;;;26.53;67.97
50710;BME280;37033;49.994;21.992;2022-08-03T09:03:55;99665.85;;;26.81;67.38
50710;BME280;37033;49.994;21.992;2022-08-03T09:06:45;99666.92;;;27.10;66.36
50710;BME280;37033;49.994;21.992;2022-08-03T09:09:35;99667.41;;;27.45;66.16
50710;BME280;37033;49.994;21.992;2022-08-03T09:12:25;99663.48;;;27.79;64.29
50710;BME280;37033;49.994;21.992;2022-08-03T09:15:20;99660.21;;;28.09;64.56
50710;BME280;37033;49.994;21.992;2022-08-03T09:18:10;99654.46;;;28.44;63.02
50710;BME280;37033;49.994;21.992;2022-08-03T09:21:13;99654.23;;;28.57;59.57
50710;BME280;37033;49.994;21.992;2022-08-03T09:24:05;99653.48;;;28.43;57.63
50710;BME280;37033;49.994;21.992;2022-08-03T09:26:55;99647.16;;;28.27;57.82
50710;BME280;37033;49.994;21.992;2022-08-03T09:29:48;99661.00;;;28.06;58.43
50710;BME280;37033;49.994;21.992;2022-08-03T09:32:38;99658.52;;;27.85;58.11
50710;BME280;37033;49.994;21.992;2022-08-03T09:35:28;99654.71;;;27.71;57.83
50710;BME280;37033;49.994;21.992;2022-08-03T09:38:20;99650.88;;;27.56;58.01
50710;BME280;37033;49.994;21.992;2022-08-03T09:41:18;99650.50;;;27.47;57.95
50710;BME280;37033;49.994;21.992;2022-08-03T09:44:08;99646.00;;;27.51;58.05
50710;BME280;37033;49.994;21.992;2022-08-03T09:46:58;99643.30;;;27.59;57.13
50710;BME280;37033;49.994;21.992;2022-08-03T09:49:58;99641.27;;;27.50;56.40
50710;BME280;37033;49.994;21.992;2022-08-03T09:52:51;99645.30;;;27.54;56.77
50710;BME280;37033;49.994;21.992;2022-08-03T09:55:51;99644.14;;;27.62;56.36
50710;BME280;37033;49.994;21.992;2022-08-03T09:58:47;99643.45;;;27.66;55.62
50710;BME280;37033;49.994;21.992;2022-08-03T10:01:38;99640.73;;;27.75;55.45
50710;BME280;37033;49.994;21.992;2022-08-03T10:04:29;99638.86;;;28.03;56.13
50710;BME280;37033;49.994;21.992;2022-08-03T10:07:21;99634.21;;;28.45;55.99
50710;BME280;37033;49.994;21.992;2022-08-03T10:10:12;99636.50;;;28.69;54.01
50710;BME280;37033;49.994;21.992;2022-08-03T10:13:02;99639.59;;;28.86;54.17
50710;BME280;37033;49.994;21.992;2022-08-03T10:15:52;99638.17;;;28.89;53.49
50710;BME280;37033;49.994;21.992;2022-08-03T10:18:42;99638.22;;;28.83;52.90
50710;BME280;37033;49.994;21.992;2022-08-03T10:21:33;99637.05;;;28.72;52.81
50710;BME280;37033;49.994;21.992;2022-08-03T10:24:28;99640.72;;;28.80;52.70
50710;BME280;37033;49.994;21.992;2022-08-03T10:27:16;99638.70;;;28.82;52.31
50710;BME280;37033;49.994;21.992;2022-08-03T10:30:09;99641.80;;;28.82;53.26
50710;BME280;37033;49.994;21.992;2022-08-03T10:33:04;99637.67;;;28.95;53.08
50710;BME280;37033;49.994;21.992;2022-08-03T10:35:57;99636.45;;;29.10;52.88
50710;BME280;37033;49.994;21.992;2022-08-03T10:38:50;99639.25;;;29.24;52.39
50710;BME280;37033;49.994;21.992;2022-08-03T10:41:41;99636.36;;;29.24;51.72
50710;BME280;37033;49.994;21.992;2022-08-03T10:44:38;99635.99;;;29.19;51.39
50710;BME280;37033;49.994;21.992;2022-08-03T10:47:28;99633.30;;;29.20;51.99
50710;BME280;37033;49.994;21.992;2022-08-03T10:50:20;99630.54;;;29.31;51.88
50710;BME280;37033;49.994;21.992;2022-08-03T10:53:12;99629.50;;;29.50;51.83
50710;BME280;37033;49.994;21.992;2022-08-03T10:56:02;99626.44;;;29.56;51.20
50710;BME280;37033;49.994;21.992;2022-08-03T10:59:10;99624.42;;;29.66;50.85
50710;BME280;37033;49.994;21.992;2022-08-03T11:02:00;99626.94;;;29.51;49.96
50710;BME280;37033;49.994;21.992;2022-08-03T11:08:25;99623.56;;;29.53;50.63
50710;BME280;37033;49.994;21.992;2022-08-03T11:11:28;99624.85;;;29.54;49.93
50710;BME280;37033;49.994;21.992;2022-08-03T11:14:20;99620.52;;;29.54;50.13
50710;BME280;37033;49.994;21.992;2022-08-03T11:17:10;99621.88;;;29.60;49.99
50710;BME280;37033;49.994;21.992;2022-08-03T11:20:00;99619.41;;;29.64;49.99
50710;BME280;37033;49.994;21.992;2022-08-03T11:22:53;99615.98;;;29.85;50.45
50710;BME280;37033;49.994;21.992;2022-08-03T11:26:17;99613.74;;;30.14;49.39
50710;BME280;37033;49.994;21.992;2022-08-03T11:29:28;99606.73;;;30.35;49.35
50710;BME280;37033;49.994;21.992;2022-08-03T11:35:58;99602.20;;;31.27;47.28
50710;BME280;37033;49.994;21.992;2022-08-03T11:45:25;99591.06;;;32.60;44.72
50710;BME280;37033;49.994;21.992;2022-08-03T11:48:16;99593.52;;;32.65;42.96
50710;BME280;37033;49.994;21.992;2022-08-03T11:51:17;99590.52;;;32.56;42.45
50710;BME280;37033;49.994;21.992;2022-08-03T11:54:07;99589.69;;;32.68;42.71
50710;BME280;37033;49.994;21.992;2022-08-03T11:56:58;99590.10;;;32.69;41.98
50710;BME280;37033;49.994;21.992;2022-08-03T11:59:48;99588.30;;;32.60;40.61
50710;BME280;37033;49.994;21.992;2022-08-03T12:02:38;99585.86;;;32.24;40.22
50710;BME280;37033;49.994;21.992;2022-08-03T12:05:43;99585.44;;;31.86;40.74
50710;BME280;37033;49.994;21.992;2022-08-03T12:08:34;99582.50;;;31.83;40.83
50710;BME280;37033;49.994;21.992;2022-08-03T12:11:24;99585.46;;;31.93;42.45
50710;BME280;37033;49.994;21.992;2022-08-03T12:14:18;99579.09;;;32.49;42.58
50710;BME280;37033;49.994;21.992;2022-08-03T12:17:07;99573.30;;;32.96;41.99
50710;BME280;37033;49.994;21.992;2022-08-03T12:19:57;99571.07;;;33.24;39.60
50710;BME280;37033;49.994;21.992;2022-08-03T12:22:47;99573.48;;;33.05;38.50
50710;BME280;37033;49.994;21.992;2022-08-03T12:25:38;99574.73;;;33.11;39.72
50710;BME280;37033;49.994;21.992;2022-08-03T12:28:29;99571.48;;;33.58;41.14
50710;BME280;37033;49.994;21.992;2022-08-03T12:31:19;99567.59;;;34.31;41.71
50710;BME280;37033;49.994;21.992;2022-08-03T12:34:09;99567.80;;;34.79;38.26
50710;BME280;37033;49.994;21.992;2022-08-03T12:36:59;99564.00;;;34.73;37.98
50710;BME280;37033;49.994;21.992;2022-08-03T12:39:54;99563.22;;;34.92;37.64
50710;BME280;37033;49.994;21.992;2022-08-03T12:42:46;99563.30;;;34.87;36.84
50710;BME280;37033;49.994;21.992;2022-08-03T12:45:36;99564.52;;;34.88;36.81
50710;BME280;37033;49.994;21.992;2022-08-03T12:48:26;99560.80;;;34.83;36.89
50710;BME280;37033;49.994;21.992;2022-08-03T12:51:16;99558.02;;;34.74;35.62
50710;BME280;37033;49.994;21.992;2022-08-03T12:54:06;99557.76;;;34.33;34.52
50710;BME280;37033;49.994;21.992;2022-08-03T12:57:01;99561.85;;;33.64;34.39
50710;BME280;37033;49.994;21.992;2022-08-03T12:59:51;99556.63;;;33.18;35.60
50710;BME280;37033;49.994;21.992;2022-08-03T13:02:43;99556.15;;;32.85;35.06
50710;BME280;37033;49.994;21.992;2022-08-03T13:05:43;99551.28;;;32.43;35.34
50710;BME280;37033;49.994;21.992;2022-08-03T13:08:33;99547.88;;;32.40;37.23
50710;BME280;37033;49.994;21.992;2022-08-03T13:11:25;99546.65;;;32.58;36.73
50710;BME280;37033;49.994;21.992;2022-08-03T13:14:15;99545.62;;;32.76;36.17
50710;BME280;37033;49.994;21.992;2022-08-03T13:17:06;99543.09;;;32.99;37.99
50710;BME280;37033;49.994;21.992;2022-08-03T13:19:56;99546.70;;;33.61;37.64
50710;BME280;37033;49.994;21.992;2022-08-03T13:22:48;99539.55;;;33.79;35.17
50710;BME280;37033;49.994;21.992;2022-08-03T13:25:38;99536.65;;;33.64;34.74
50710;BME280;37033;49.994;21.992;2022-08-03T13:28:28;99533.17;;;33.60;36.08
50710;BME280;37033;49.994;21.992;2022-08-03T13:31:18;99532.02;;;33.86;35.36
50710;BME280;37033;49.994;21.992;2022-08-03T13:34:07;99529.89;;;33.96;34.28
50710;BME280;37033;49.994;21.992;2022-08-03T13:36:57;99530.20;;;34.14;34.47
50710;BME280;37033;49.994;21.992;2022-08-03T13:39:47;99524.95;;;34.34;33.43
50710;BME280;37033;49.994;21.992;2022-08-03T13:42:37;99524.91;;;34.58;35.09
50710;BME280;37033;49.994;21.992;2022-08-03T13:45:27;99526.34;;;35.12;34.10
50710;BME280;37033;49.994;21.992;2022-08-03T13:48:18;99526.41;;;35.16;32.21
50710;BME280;37033;49.994;21.992;2022-08-03T13:51:08;99524.64;;;34.95;31.48
50710;BME280;37033;49.994;21.992;2022-08-03T13:53:58;99521.53;;;34.54;31.57
50710;BME280;37033;49.994;21.992;2022-08-03T13:56:47;99518.92;;;34.44;33.15
50710;BME280;37033;49.994;21.992;2022-08-03T13:59:39;99520.98;;;34.65;32.63
50710;BME280;37033;49.994;21.992;2022-08-03T14:02:30;99515.33;;;34.62;32.48
50710;BME280;37033;49.994;21.992;2022-08-03T14:05:19;99518.01;;;34.66;32.88
50710;BME280;37033;49.994;21.992;2022-08-03T14:08:10;99518.70;;;34.57;32.54
50710;BME280;37033;49.994;21.992;2022-08-03T14:11:00;99517.88;;;34.53;32.56
50710;BME280;37033;49.994;21.992;2022-08-03T14:13:50;99519.70;;;34.65;33.19
50710;BME280;37033;49.994;21.992;2022-08-03T14:16:40;99517.46;;;34.74;33.29
50710;BME280;37033;49.994;21.992;2022-08-03T14:19:30;99516.23;;;34.69;31.97
50710;BME280;37033;49.994;21.992;2022-08-03T14:22:20;99513.32;;;34.30;32.04
50710;BME280;37033;49.994;21.992;2022-08-03T14:25:10;99513.07;;;34.04;33.57
50710;BME280;37033;49.994;21.992;2022-08-03T14:28:00;99509.54;;;34.12;34.15
50710;BME280;37033;49.994;21.992;2022-08-03T14:30:51;99501.80;;;34.12;34.21
50710;BME280;37033;49.994;21.992;2022-08-03T14:33:41;99500.08;;;34.16;34.70
50710;BME280;37033;49.994;21.992;2022-08-03T14:36:31;99498.94;;;34.15;33.69
50710;BME280;37033;49.994;21.992;2022-08-03T14:39:21;99496.13;;;33.99;33.64
50710;BME280;37033;49.994;21.992;2022-08-03T14:42:11;99493.74;;;33.87;33.87
50710;BME280;37033;49.994;21.992;2022-08-03T14:45:01;99491.28;;;33.74;34.10
50710;BME280;37033;49.994;21.992;2022-08-03T14:47:51;99492.55;;;33.67;34.47
50710;BME280;37033;49.994;21.992;2022-08-03T14:50:42;99488.23;;;33.60;34.16
50710;BME280;37033;49.994;21.992;2022-08-03T14:53:32;99485.33;;;33.46;33.93
50710;BME280;37033;49.994;21.992;2022-08-03T14:56:22;99484.55;;;33.40;34.11
50710;BME280;37033;49.994;21.992;2022-08-03T14:59:12;99489.85;;;33.37;34.39
50710;BME280;37033;49.994;21.992;2022-08-03T15:02:03;99487.02;;;33.35;34.81
50710;BME280;37033;49.994;21.992;2022-08-03T15:04:52;99486.30;;;33.34;35.34
50710;BME280;37033;49.994;21.992;2022-08-03T15:07:42;99487.84;;;33.36;35.26
50710;BME280;37033;49.994;21.992;2022-08-03T15:10:33;99485.63;;;33.41;36.04
50710;BME280;37033;49.994;21.992;2022-08-03T15:13:23;99482.52;;;33.50;35.37